メインページ
METAR-TAF:

METAR-TAF

空港 :

ケープタウン国際空港

ケープタウン, 南アフリカ共和国

緯度: 33-59S, 経度: 018-36E, 海抜: 42m

現時点の気象観測

当レポートは38分前の20:00(UTC)に作成
の風 4kt
気温 8°C
湿度 81%
気圧 1031 hPa
視程10km以上
1,500メートル以下は雲なし、積乱雲なし

METAR: FACT 172000Z 17004KT CAVOK 08/05 Q1031 NOSIG

時間: 22:38 (20:38 UTC)

予報

当レポートは4時間38分前の16:00(UTC)に作成
予報は17日の 18時(UTC)から 18日の 24時(UTC)まで有効
の風 8kt
視程10km以上
高度3000ftの雲はほとんどない
18日の 0300時(UTC)から
北/北東の風 4kt
視程10km以上
1,500メートル以下は雲なし、積乱雲なし

TAF: FACT 171600Z 1718/1824 17008KT 9999 FEW030 FM180300 03004KT CAVOK TX19/1812Z TN03/1806Z

4,000以上の空港の気象観測と天気予報(METAR報とTAF報)

利用可能な観測所は地図上に黄色い丸と赤い丸で示す。

丸の上にカーソルを重ねると観測所名を参照できる。

次にクリックすると気象観測と天気予報を参照できる。

マップの切り替え:黒色「×」印の緑ボタンをクリックして拡大、「-」印の緑ボタンをクリックして縮小、緑色の三角印をクリックして隣りの地図に切り替え


METAR-TAF: